Pierre, SD

7:49 AM CDT on September 16, 2014 (GMT -0500)
2 miles north of airport | Change Station
CLOSE
Current Station
Personal Weather Station
Location: Pierre, SD
Elevation: 1818 ft
Nearby Weather Stations

Elev 1818 ft 44.41 °N, 100.30 °W | Updated 22 seconds ago

Clear
Clear
45.8 °F
Feels Like 43 °F
N
6.0
Wind Variable Wind from ESE
Gusts 11.0 mph

Today
High -- | Low -- °F
--% Chance of Precip.
Yesterday
High -- | Low -- °F
Precip. -- in
7:20 AM 7:49 PM
Last Quarter, 46% visible
Pressure 30.04 in
Visibility 10.0 miles
Clouds Clear
Windchill 43 °F
Dew Point 44 °F
Humidity 92%
Rainfall 0.00 in
Snow Depth 0 in
UV 0 out of 12
Pollen 4.30 out of 12
Air Quality Not available.
Flu Activity Not available.
METAR KPIR 161153Z AUTO 13010KT 10SM CLR 08/05 A3004 RMK AO2 SLP172 T00780050 10100 20078 56016

More Conditions Fewer Conditions

Pressure 30.04 in
Visibility 10.0 miles
Clouds Clear
Windchill 43 °F
Dew Point 44 °F
Humidity 92%
Rainfall 0.00 in
Snow Depth 0 in
UV 0 out of 12
Pollen 4.30 out of 12
Air Quality Not available.
Flu Activity Not available.
METAR KPIR 161153Z AUTO 13010KT 10SM CLR 08/05 A3004 RMK AO2 SLP172 T00780050 10100 20078 56016

More Conditions Fewer Conditions

10-Day Weather Forecast

Almanac

Astronomy

Sep. 16, 2014 Rise Set
Actual Time 7:20 AM CDT 7:49 PM CDT
Civil Twilight 6:51 AM CDT 8:18 PM CDT
Nautical Twilight 6:17 AM CDT 8:52 PM CDT
Astronomical Twilight 5:41 AM CDT 9:28 PM CDT
Moon 12:22 AM CDT 3:24 PM CDT
Length of Visible Light 13h 26m
Length of Day
12h 28m
Tomorrow will be 3m 2s shorter.
Last Quarter, 46% of the Moon is Illuminated
Today
Last Quarter
Sep 24
New
Oct 1
First Quarter
Oct 8
Full
Oct 15
Last Quarter

Today's Extremes

State Highs State Lows

Community

WunderPhotos

Upload Photos

1,753,756 photos uploaded!

Nearby

Snow Depth

Station Depth Elevation
Blind Park 0 in 6890 ft

Earthquake Activity

City Distance Mag. Time & Date
No recent earthquake activity has been reported nearby.
Minimum magnitude displayed is 2.5.

Coastal Water Temperatures

Place Temperature
No Stations Reporting

Nearby Weather Stations